sensor_id;sensor_type;location;lat;lon;timestamp;pressure;altitude;pressure_sealevel;temperature;humidity
38054;BME280;23859;50.672;7.164;2023-01-29T00:01:57;102218.63;;;-0.76;100.00
38054;BME280;23859;50.672;7.164;2023-01-29T00:04:23;102213.31;;;-0.70;100.00
38054;BME280;23859;50.672;7.164;2023-01-29T00:06:50;102209.44;;;-0.48;100.00
38054;BME280;23859;50.672;7.164;2023-01-29T00:09:16;102208.81;;;-0.61;100.00
38054;BME280;23859;50.672;7.164;2023-01-29T00:11:42;102214.88;;;-0.60;100.00
38054;BME280;23859;50.672;7.164;2023-01-29T00:14:08;102209.75;;;-0.66;100.00
38054;BME280;23859;50.672;7.164;2023-01-29T00:16:34;102210.69;;;-0.70;100.00
38054;BME280;23859;50.672;7.164;2023-01-29T00:19:01;102203.00;;;-0.77;100.00
38054;BME280;23859;50.672;7.164;2023-01-29T00:21:27;102202.94;;;-0.73;100.00
38054;BME280;23859;50.672;7.164;2023-01-29T00:23:55;102223.13;;;-0.85;100.00
38054;BME280;23859;50.672;7.164;2023-01-29T00:26:21;102194.59;;;-0.94;100.00
38054;BME280;23859;50.672;7.164;2023-01-29T00:28:48;102195.31;;;-0.85;100.00
38054;BME280;23859;50.672;7.164;2023-01-29T00:31:17;102191.72;;;-0.79;100.00
38054;BME280;23859;50.672;7.164;2023-01-29T00:33:44;102205.88;;;-0.92;100.00
38054;BME280;23859;50.672;7.164;2023-01-29T00:36:12;102184.00;;;-0.84;100.00
38054;BME280;23859;50.672;7.164;2023-01-29T00:38:38;102182.22;;;-0.80;100.00
38054;BME280;23859;50.672;7.164;2023-01-29T00:41:23;102176.28;;;-0.90;100.00
38054;BME280;23859;50.672;7.164;2023-01-29T00:44:09;102168.63;;;-1.00;100.00
38054;BME280;23859;50.672;7.164;2023-01-29T00:46:54;102159.75;;;-0.89;100.00
38054;BME280;23859;50.672;7.164;2023-01-29T00:49:20;102167.84;;;-1.05;100.00
38054;BME280;23859;50.672;7.164;2023-01-29T00:51:46;102153.94;;;-1.04;100.00
38054;BME280;23859;50.672;7.164;2023-01-29T00:54:31;102151.44;;;-1.10;100.00
38054;BME280;23859;50.672;7.164;2023-01-29T00:56:57;102156.47;;;-1.00;100.00
38054;BME280;23859;50.672;7.164;2023-01-29T00:59:23;102152.00;;;-0.93;100.00
38054;BME280;23859;50.672;7.164;2023-01-29T01:01:49;102157.47;;;-1.07;100.00
38054;BME280;23859;50.672;7.164;2023-01-29T01:04:34;102163.66;;;-1.14;100.00
38054;BME280;23859;50.672;7.164;2023-01-29T01:07:00;102154.03;;;-1.10;100.00
38054;BME280;23859;50.672;7.164;2023-01-29T01:09:26;102152.47;;;-1.20;100.00
38054;BME280;23859;50.672;7.164;2023-01-29T01:12:11;102159.91;;;-0.98;100.00
38054;BME280;23859;50.672;7.164;2023-01-29T01:14:37;102154.78;;;-1.04;100.00
38054;BME280;23859;50.672;7.164;2023-01-29T01:17:03;102141.78;;;-1.05;100.00
38054;BME280;23859;50.672;7.164;2023-01-29T01:19:29;102147.13;;;-1.13;100.00
38054;BME280;23859;50.672;7.164;2023-01-29T01:21:55;102152.34;;;-1.13;100.00
38054;BME280;23859;50.672;7.164;2023-01-29T01:24:21;102148.84;;;-1.12;100.00
38054;BME280;23859;50.672;7.164;2023-01-29T01:26:48;102151.50;;;-1.15;100.00
38054;BME280;23859;50.672;7.164;2023-01-29T01:29:14;102152.28;;;-1.08;100.00
38054;BME280;23859;50.672;7.164;2023-01-29T01:31:40;102158.59;;;-1.23;100.00
38054;BME280;23859;50.672;7.164;2023-01-29T01:34:06;102163.09;;;-1.32;100.00
38054;BME280;23859;50.672;7.164;2023-01-29T01:36:32;102167.28;;;-1.24;100.00
38054;BME280;23859;50.672;7.164;2023-01-29T01:38:58;102166.47;;;-1.27;100.00
38054;BME280;23859;50.672;7.164;2023-01-29T01:41:24;102162.16;;;-1.28;100.00
38054;BME280;23859;50.672;7.164;2023-01-29T01:43:58;102164.72;;;-1.25;100.00
38054;BME280;23859;50.672;7.164;2023-01-29T01:46:28;102166.66;;;-1.37;100.00
38054;BME280;23859;50.672;7.164;2023-01-29T01:51:25;102164.72;;;-1.25;100.00
38054;BME280;23859;50.672;7.164;2023-01-29T01:54:02;102160.41;;;-1.28;100.00
38054;BME280;23859;50.672;7.164;2023-01-29T01:56:36;102161.97;;;-1.18;100.00
38054;BME280;23859;50.672;7.164;2023-01-29T01:59:09;102162.22;;;-1.31;100.00
38054;BME280;23859;50.672;7.164;2023-01-29T02:01:37;102158.97;;;-1.46;100.00
38054;BME280;23859;50.672;7.164;2023-01-29T02:04:12;102159.72;;;-1.38;100.00
38054;BME280;23859;50.672;7.164;2023-01-29T02:06:58;102159.50;;;-1.25;100.00
38054;BME280;23859;50.672;7.164;2023-01-29T02:09:49;102158.59;;;-1.23;100.00
38054;BME280;23859;50.672;7.164;2023-01-29T02:12:18;102157.75;;;-1.23;100.00
38054;BME280;23859;50.672;7.164;2023-01-29T02:14:44;102151.94;;;-1.41;100.00
38054;BME280;23859;50.672;7.164;2023-01-29T02:17:13;102152.06;;;-1.47;100.00
38054;BME280;23859;50.672;7.164;2023-01-29T02:19:49;102152.00;;;-1.44;100.00
38054;BME280;23859;50.672;7.164;2023-01-29T02:22:45;102146.84;;;-1.47;100.00
38054;BME280;23859;50.672;7.164;2023-01-29T02:25:43;102145.09;;;-1.47;100.00
38054;BME280;23859;50.672;7.164;2023-01-29T02:36:19;102147.25;;;-1.74;100.00
38054;BME280;23859;50.672;7.164;2023-01-29T02:39:00;102142.94;;;-1.78;100.00
38054;BME280;23859;50.672;7.164;2023-01-29T02:44:36;102146.47;;;-1.81;100.00
38054;BME280;23859;50.672;7.164;2023-01-29T02:49:36;102136.13;;;-1.87;100.00
38054;BME280;23859;50.672;7.164;2023-01-29T02:52:25;102144.03;;;-1.91;100.00
38054;BME280;23859;50.672;7.164;2023-01-29T02:55:17;102143.06;;;-1.86;100.00
38054;BME280;23859;50.672;7.164;2023-01-29T02:57:49;102152.47;;;-1.74;100.00
38054;BME280;23859;50.672;7.164;2023-01-29T03:00:21;102155.09;;;-1.77;100.00
38054;BME280;23859;50.672;7.164;2023-01-29T03:03:06;102157.47;;;-1.62;100.00
38054;BME280;23859;50.672;7.164;2023-01-29T03:05:48;102155.81;;;-1.66;100.00
38054;BME280;23859;50.672;7.164;2023-01-29T03:08:24;102156.78;;;-1.75;100.00
38054;BME280;23859;50.672;7.164;2023-01-29T03:11:04;102159.34;;;-1.70;100.00
38054;BME280;23859;50.672;7.164;2023-01-29T03:19:08;102160.09;;;-1.61;100.00
38054;BME280;23859;50.672;7.164;2023-01-29T03:21:55;102169.59;;;-1.60;100.00
38054;BME280;23859;50.672;7.164;2023-01-29T03:24:46;102171.03;;;-1.39;100.00
38054;BME280;23859;50.672;7.164;2023-01-29T03:27:43;102172.69;;;-1.34;100.00
38054;BME280;23859;50.672;7.164;2023-01-29T03:30:32;102173.69;;;-1.44;100.00
38054;BME280;23859;50.672;7.164;2023-01-29T03:33:20;102186.72;;;-1.42;100.00
38054;BME280;23859;50.672;7.164;2023-01-29T03:36:12;102191.63;;;-1.25;100.00
38054;BME280;23859;50.672;7.164;2023-01-29T03:38:40;102197.66;;;-1.21;100.00
38054;BME280;23859;50.672;7.164;2023-01-29T03:41:19;102195.00;;;-1.17;100.00
38054;BME280;23859;50.672;7.164;2023-01-29T03:46:51;102205.78;;;-0.88;100.00
38054;BME280;23859;50.672;7.164;2023-01-29T03:55:03;102190.31;;;-0.97;100.00
38054;BME280;23859;50.672;7.164;2023-01-29T04:00:21;102163.38;;;-0.97;100.00
38054;BME280;23859;50.672;7.164;2023-01-29T04:05:48;102165.13;;;-0.98;100.00
38054;BME280;23859;50.672;7.164;2023-01-29T04:08:21;102057.38;;;-1.46;100.00
38054;BME280;23859;50.672;7.164;2023-01-29T04:10:48;102149.47;;;-0.98;100.00
38054;BME280;23859;50.672;7.164;2023-01-29T04:13:17;102147.75;;;-0.99;100.00
38054;BME280;23859;50.672;7.164;2023-01-29T04:15:48;102138.13;;;-0.95;100.00
38054;BME280;23859;50.672;7.164;2023-01-29T04:18:15;102131.28;;;-1.01;100.00
38054;BME280;23859;50.672;7.164;2023-01-29T04:20:43;102147.88;;;-1.06;100.00
38054;BME280;23859;50.672;7.164;2023-01-29T04:23:20;102145.38;;;-1.11;100.00
38054;BME280;23859;50.672;7.164;2023-01-29T04:25:54;102164.53;;;-1.13;100.00
38054;BME280;23859;50.672;7.164;2023-01-29T04:28:32;102156.50;;;-1.03;100.00
38054;BME280;23859;50.672;7.164;2023-01-29T04:31:07;102149.09;;;-0.77;100.00
38054;BME280;23859;50.672;7.164;2023-01-29T04:36:35;102143.66;;;-0.65;100.00
38054;BME280;23859;50.672;7.164;2023-01-29T04:39:24;102138.50;;;-0.68;100.00
38054;BME280;23859;50.672;7.164;2023-01-29T04:50:27;102133.03;;;-1.03;100.00
38054;BME280;23859;50.672;7.164;2023-01-29T04:55:46;102119.97;;;-1.00;100.00
38054;BME280;23859;50.672;7.164;2023-01-29T04:58:24;102123.25;;;-0.89;100.00
38054;BME280;23859;50.672;7.164;2023-01-29T05:00:53;102115.44;;;-0.90;100.00
38054;BME280;23859;50.672;7.164;2023-01-29T05:03:22;102118.03;;;-0.89;100.00
38054;BME280;23859;50.672;7.164;2023-01-29T05:05:50;102125.75;;;-0.84;100.00
38054;BME280;23859;50.672;7.164;2023-01-29T05:08:22;102132.72;;;-0.85;100.00
38054;BME280;23859;50.672;7.164;2023-01-29T05:10:50;102141.41;;;-0.84;100.00
38054;BME280;23859;50.672;7.164;2023-01-29T05:13:18;102143.16;;;-0.85;100.00
38054;BME280;23859;50.672;7.164;2023-01-29T05:16:03;102142.94;;;-0.74;100.00
38054;BME280;23859;50.672;7.164;2023-01-29T05:18:33;102133.53;;;-0.83;100.00
38054;BME280;23859;50.672;7.164;2023-01-29T05:21:02;102133.50;;;-0.80;100.00
38054;BME280;23859;50.672;7.164;2023-01-29T05:23:29;102126.69;;;-0.87;100.00
38054;BME280;23859;50.672;7.164;2023-01-29T05:25:56;102128.31;;;-0.83;100.00
38054;BME280;23859;50.672;7.164;2023-01-29T05:28:22;102124.91;;;-0.85;100.00
38054;BME280;23859;50.672;7.164;2023-01-29T05:30:51;102119.88;;;-0.95;100.00
38054;BME280;23859;50.672;7.164;2023-01-29T05:33:28;102125.13;;;-0.97;100.00
38054;BME280;23859;50.672;7.164;2023-01-29T05:35:57;102129.50;;;-0.97;100.00
38054;BME280;23859;50.672;7.164;2023-01-29T05:38:23;102128.56;;;-0.95;100.00
38054;BME280;23859;50.672;7.164;2023-01-29T05:40:49;102128.56;;;-0.96;100.00
38054;BME280;23859;50.672;7.164;2023-01-29T05:43:23;102120.13;;;-1.09;100.00
38054;BME280;23859;50.672;7.164;2023-01-29T05:45:56;102114.09;;;-1.11;100.00
38054;BME280;23859;50.672;7.164;2023-01-29T05:48:24;102107.13;;;-1.10;100.00
38054;BME280;23859;50.672;7.164;2023-01-29T05:50:51;102095.75;;;-1.06;100.00
38054;BME280;23859;50.672;7.164;2023-01-29T05:53:17;102095.56;;;-0.96;100.00
38054;BME280;23859;50.672;7.164;2023-01-29T05:55:44;102103.44;;;-1.00;100.00
38054;BME280;23859;50.672;7.164;2023-01-29T05:58:11;102101.06;;;-1.11;100.00
38054;BME280;23859;50.672;7.164;2023-01-29T06:00:37;102102.78;;;-1.10;100.00
38054;BME280;23859;50.672;7.164;2023-01-29T06:03:03;102113.25;;;-1.13;100.00
38054;BME280;23859;50.672;7.164;2023-01-29T06:05:29;102102.91;;;-1.19;100.00
38054;BME280;23859;50.672;7.164;2023-01-29T06:07:55;102101.25;;;-1.23;100.00
38054;BME280;23859;50.672;7.164;2023-01-29T06:10:21;102088.16;;;-1.20;100.00
38054;BME280;23859;50.672;7.164;2023-01-29T06:12:48;102088.94;;;-1.15;100.00
38054;BME280;23859;50.672;7.164;2023-01-29T06:15:14;102101.91;;;-1.10;100.00
38054;BME280;23859;50.672;7.164;2023-01-29T06:17:41;102109.84;;;-1.18;100.00
38054;BME280;23859;50.672;7.164;2023-01-29T06:20:08;102110.50;;;-1.05;100.00
38054;BME280;23859;50.672;7.164;2023-01-29T06:22:34;102115.47;;;-0.92;100.00
38054;BME280;23859;50.672;7.164;2023-01-29T06:25:00;102113.06;;;-1.02;100.00
38054;BME280;23859;50.672;7.164;2023-01-29T06:27:26;102117.47;;;-1.06;100.00
38054;BME280;23859;50.672;7.164;2023-01-29T06:29:52;102107.94;;;-1.07;100.00
38054;BME280;23859;50.672;7.164;2023-01-29T06:32:18;102108.69;;;-1.02;100.00
38054;BME280;23859;50.672;7.164;2023-01-29T06:34:44;102103.72;;;-1.15;100.00
38054;BME280;23859;50.672;7.164;2023-01-29T06:37:10;102105.75;;;-1.32;100.00
38054;BME280;23859;50.672;7.164;2023-01-29T06:39:36;102117.16;;;-1.37;100.00
38054;BME280;23859;50.672;7.164;2023-01-29T06:42:02;102119.69;;;-1.34;100.00
38054;BME280;23859;50.672;7.164;2023-01-29T06:44:28;102113.63;;;-1.35;100.00
38054;BME280;23859;50.672;7.164;2023-01-29T06:46:55;102117.84;;;-1.27;100.00
38054;BME280;23859;50.672;7.164;2023-01-29T06:49:21;102114.34;;;-1.27;100.00
38054;BME280;23859;50.672;7.164;2023-01-29T06:51:47;102120.47;;;-1.30;100.00
38054;BME280;23859;50.672;7.164;2023-01-29T06:54:13;102116.13;;;-1.28;100.00
38054;BME280;23859;50.672;7.164;2023-01-29T06:56:39;102118.66;;;-1.25;100.00
38054;BME280;23859;50.672;7.164;2023-01-29T06:59:05;102124.69;;;-1.21;100.00
38054;BME280;23859;50.672;7.164;2023-01-29T07:01:31;102130.53;;;-1.09;100.00
38054;BME280;23859;50.672;7.164;2023-01-29T07:03:57;102144.59;;;-1.16;100.00
38054;BME280;23859;50.672;7.164;2023-01-29T07:06:27;102149.75;;;-1.13;100.00
38054;BME280;23859;50.672;7.164;2023-01-29T07:08:54;102156.84;;;-1.21;100.00
38054;BME280;23859;50.672;7.164;2023-01-29T07:11:20;102173.44;;;-1.28;100.00
38054;BME280;23859;50.672;7.164;2023-01-29T07:13:46;102170.88;;;-1.31;100.00
38054;BME280;23859;50.672;7.164;2023-01-29T07:16:12;102176.94;;;-1.29;100.00
38054;BME280;23859;50.672;7.164;2023-01-29T07:18:38;102172.63;;;-1.31;100.00
38054;BME280;23859;50.672;7.164;2023-01-29T07:21:05;102171.78;;;-1.32;100.00
38054;BME280;23859;50.672;7.164;2023-01-29T07:23:33;102173.69;;;-1.42;100.00
38054;BME280;23859;50.672;7.164;2023-01-29T07:26:04;102160.69;;;-1.45;100.00
38054;BME280;23859;50.672;7.164;2023-01-29T07:28:30;102155.44;;;-1.42;100.00
38054;BME280;23859;50.672;7.164;2023-01-29T07:30:57;102152.75;;;-1.36;100.00
38054;BME280;23859;50.672;7.164;2023-01-29T07:33:24;102152.56;;;-1.26;100.00
38054;BME280;23859;50.672;7.164;2023-01-29T07:35:50;102143.81;;;-1.22;100.00
38054;BME280;23859;50.672;7.164;2023-01-29T07:38:17;102143.47;;;-1.03;100.00
38054;BME280;23859;50.672;7.164;2023-01-29T07:40:43;102151.81;;;-0.83;100.00
38054;BME280;23859;50.672;7.164;2023-01-29T07:43:10;102149.63;;;-0.60;100.00
38054;BME280;23859;50.672;7.164;2023-01-29T07:45:37;102154.34;;;-0.33;100.00
38054;BME280;23859;50.672;7.164;2023-01-29T07:48:05;102153.31;;;-0.26;100.00
38054;BME280;23859;50.672;7.164;2023-01-29T07:50:32;102157.47;;;-0.16;100.00
38054;BME280;23859;50.672;7.164;2023-01-29T07:52:59;102156.50;;;-0.12;100.00
38054;BME280;23859;50.672;7.164;2023-01-29T07:55:25;102165.88;;;-0.03;100.00
38054;BME280;23859;50.672;7.164;2023-01-29T07:57:55;102164.66;;;0.13;100.00
38054;BME280;23859;50.672;7.164;2023-01-29T08:00:21;102156.13;;;0.05;100.00
38054;BME280;23859;50.672;7.164;2023-01-29T08:02:47;102152.50;;;0.11;100.00
38054;BME280;23859;50.672;7.164;2023-01-29T08:05:13;102155.16;;;0.09;100.00
38054;BME280;23859;50.672;7.164;2023-01-29T08:07:39;102153.31;;;0.14;99.45
38054;BME280;23859;50.672;7.164;2023-01-29T08:10:06;102153.63;;;0.39;99.82
38054;BME280;23859;50.672;7.164;2023-01-29T08:12:32;102150.38;;;0.65;98.82
38054;BME280;23859;50.672;7.164;2023-01-29T08:14:58;102150.09;;;1.12;96.05
38054;BME280;23859;50.672;7.164;2023-01-29T08:17:24;102156.66;;;0.93;94.26
38054;BME280;23859;50.672;7.164;2023-01-29T08:19:50;102147.56;;;0.73;94.40
38054;BME280;23859;50.672;7.164;2023-01-29T08:22:16;102146.63;;;0.75;94.21
38054;BME280;23859;50.672;7.164;2023-01-29T08:24:42;102142.28;;;0.40;97.25
38054;BME280;23859;50.672;7.164;2023-01-29T08:27:08;102146.66;;;0.39;97.63
38054;BME280;23859;50.672;7.164;2023-01-29T08:29:35;102147.78;;;0.29;98.10
38054;BME280;23859;50.672;7.164;2023-01-29T08:32:01;102146.88;;;0.66;95.64
38054;BME280;23859;50.672;7.164;2023-01-29T08:34:27;102152.94;;;0.67;96.44
38054;BME280;23859;50.672;7.164;2023-01-29T08:36:53;102151.91;;;0.74;96.28
38054;BME280;23859;50.672;7.164;2023-01-29T08:39:19;102147.13;;;0.91;93.58
38054;BME280;23859;50.672;7.164;2023-01-29T08:41:45;102142.88;;;0.87;93.43
38054;BME280;23859;50.672;7.164;2023-01-29T08:44:11;102144.81;;;0.79;94.19
38054;BME280;23859;50.672;7.164;2023-01-29T08:46:37;102152.16;;;0.65;94.69
38054;BME280;23859;50.672;7.164;2023-01-29T08:49:05;102150.19;;;0.74;92.54
38054;BME280;23859;50.672;7.164;2023-01-29T08:51:32;102149.16;;;0.80;93.99
38054;BME280;23859;50.672;7.164;2023-01-29T08:53:58;102133.81;;;1.01;91.80
38054;BME280;23859;50.672;7.164;2023-01-29T08:56:24;102138.16;;;1.01;90.18
38054;BME280;23859;50.672;7.164;2023-01-29T08:58:50;102133.47;;;1.13;89.74
38054;BME280;23859;50.672;7.164;2023-01-29T09:01:16;102131.94;;;1.06;90.10
38054;BME280;23859;50.672;7.164;2023-01-29T09:03:42;102136.28;;;1.06;91.30
38054;BME280;23859;50.672;7.164;2023-01-29T09:06:13;102147.97;;;0.93;89.85
38054;BME280;23859;50.672;7.164;2023-01-29T09:08:40;102137.63;;;0.88;90.61
38054;BME280;23859;50.672;7.164;2023-01-29T09:11:06;102144.53;;;0.91;89.08
38054;BME280;23859;50.672;7.164;2023-01-29T09:13:32;102147.03;;;0.95;89.62
38054;BME280;23859;50.672;7.164;2023-01-29T09:16:03;102144.78;;;0.80;90.75
38054;BME280;23859;50.672;7.164;2023-01-29T09:18:29;102145.72;;;0.78;90.61
38054;BME280;23859;50.672;7.164;2023-01-29T09:20:55;102135.03;;;0.87;90.46
38054;BME280;23859;50.672;7.164;2023-01-29T09:23:22;102136.91;;;0.82;91.12
38054;BME280;23859;50.672;7.164;2023-01-29T09:25:48;102134.22;;;0.85;90.21
38054;BME280;23859;50.672;7.164;2023-01-29T09:28:14;102132.22;;;0.94;90.97
38054;BME280;23859;50.672;7.164;2023-01-29T09:30:42;102127.44;;;1.10;90.98
38054;BME280;23859;50.672;7.164;2023-01-29T09:33:09;102123.91;;;1.12;89.50
38054;BME280;23859;50.672;7.164;2023-01-29T09:35:35;102131.00;;;1.09;88.16
38054;BME280;23859;50.672;7.164;2023-01-29T09:38:01;102141.50;;;1.39;86.85
38054;BME280;23859;50.672;7.164;2023-01-29T09:43:22;102134.56;;;1.36;86.59
38054;BME280;23859;50.672;7.164;2023-01-29T09:45:57;102121.06;;;1.21;87.44
38054;BME280;23859;50.672;7.164;2023-01-29T09:48:29;102110.47;;;1.26;86.17
38054;BME280;23859;50.672;7.164;2023-01-29T09:50:59;102100.13;;;1.21;88.72
38054;BME280;23859;50.672;7.164;2023-01-29T09:53:39;102099.91;;;1.29;86.48
38054;BME280;23859;50.672;7.164;2023-01-29T09:56:18;102110.19;;;1.66;83.90
38054;BME280;23859;50.672;7.164;2023-01-29T09:58:45;102107.84;;;1.56;84.44
38054;BME280;23859;50.672;7.164;2023-01-29T10:01:26;102092.44;;;1.76;83.33
38054;BME280;23859;50.672;7.164;2023-01-29T10:04:19;102087.75;;;1.87;83.46
38054;BME280;23859;50.672;7.164;2023-01-29T10:07:15;102091.22;;;2.14;82.87
38054;BME280;23859;50.672;7.164;2023-01-29T10:16:02;102077.28;;;2.93;77.65
38054;BME280;23859;50.672;7.164;2023-01-29T10:21:51;102063.47;;;2.88;76.39
38054;BME280;23859;50.672;7.164;2023-01-29T10:24:44;102059.34;;;3.05;75.14
38054;BME280;23859;50.672;7.164;2023-01-29T10:27:17;102047.66;;;3.61;72.50
38054;BME280;23859;50.672;7.164;2023-01-29T10:29:45;102050.84;;;3.69;72.47
38054;BME280;23859;50.672;7.164;2023-01-29T10:32:17;102048.50;;;4.05;70.48
38054;BME280;23859;50.672;7.164;2023-01-29T10:34:48;102043.31;;;4.25;68.91
38054;BME280;23859;50.672;7.164;2023-01-29T10:37:22;102039.53;;;4.32;69.40
38054;BME280;23859;50.672;7.164;2023-01-29T10:39:49;102033.53;;;4.50;67.50
38054;BME280;23859;50.672;7.164;2023-01-29T10:47:31;102025.25;;;5.19;65.50
38054;BME280;23859;50.672;7.164;2023-01-29T10:50:17;102023.41;;;4.81;66.41
38054;BME280;23859;50.672;7.164;2023-01-29T10:53:11;102017.47;;;5.35;65.30
38054;BME280;23859;50.672;7.164;2023-01-29T10:58:48;102007.38;;;5.63;63.49
38054;BME280;23859;50.672;7.164;2023-01-29T11:01:15;102005.72;;;5.42;64.13
38054;BME280;23859;50.672;7.164;2023-01-29T11:03:41;102002.81;;;6.22;62.08
38054;BME280;23859;50.672;7.164;2023-01-29T11:06:23;102003.75;;;5.27;64.90
38054;BME280;23859;50.672;7.164;2023-01-29T11:11:21;101994.25;;;5.43;63.27
38054;BME280;23859;50.672;7.164;2023-01-29T11:13:54;101985.19;;;5.30;64.76
38054;BME280;23859;50.672;7.164;2023-01-29T11:16:22;101982.28;;;4.78;67.36
38054;BME280;23859;50.672;7.164;2023-01-29T11:18:59;101980.00;;;4.71;67.78
38054;BME280;23859;50.672;7.164;2023-01-29T11:21:27;101977.03;;;5.36;65.97
38054;BME280;23859;50.672;7.164;2023-01-29T11:24:10;101963.41;;;4.89;66.36
38054;BME280;23859;50.672;7.164;2023-01-29T11:26:39;101958.84;;;5.67;64.35
38054;BME280;23859;50.672;7.164;2023-01-29T11:31:52;101950.25;;;5.82;63.16
38054;BME280;23859;50.672;7.164;2023-01-29T11:34:23;101945.94;;;5.61;64.15
38054;BME280;23859;50.672;7.164;2023-01-29T11:36:57;101946.75;;;5.82;61.72
38054;BME280;23859;50.672;7.164;2023-01-29T11:39:24;101944.53;;;5.54;63.25
38054;BME280;23859;50.672;7.164;2023-01-29T11:41:56;101944.09;;;5.08;64.85
38054;BME280;23859;50.672;7.164;2023-01-29T11:49:52;101927.19;;;6.21;60.68
38054;BME280;23859;50.672;7.164;2023-01-29T11:52:25;101923.75;;;5.67;63.64
38054;BME280;23859;50.672;7.164;2023-01-29T11:55:12;101917.13;;;5.75;63.17
38054;BME280;23859;50.672;7.164;2023-01-29T11:57:42;101920.31;;;5.10;63.62
38054;BME280;23859;50.672;7.164;2023-01-29T12:02:52;101907.03;;;5.66;63.36
38054;BME280;23859;50.672;7.164;2023-01-29T12:05:21;101890.50;;;5.81;61.97
38054;BME280;23859;50.672;7.164;2023-01-29T12:07:49;101884.06;;;6.22;60.87
38054;BME280;23859;50.672;7.164;2023-01-29T12:10:40;101882.16;;;6.74;60.20
38054;BME280;23859;50.672;7.164;2023-01-29T12:15:37;101873.72;;;6.17;59.30
38054;BME280;23859;50.672;7.164;2023-01-29T12:18:17;101875.22;;;5.52;62.78
38054;BME280;23859;50.672;7.164;2023-01-29T12:26:33;101752.63;;;4.55;64.01
38054;BME280;23859;50.672;7.164;2023-01-29T12:29:23;101867.41;;;5.14;66.17
38054;BME280;23859;50.672;7.164;2023-01-29T12:34:41;101858.22;;;5.23;65.35
38054;BME280;23859;50.672;7.164;2023-01-29T12:37:47;101851.69;;;5.13;66.28
38054;BME280;23859;50.672;7.164;2023-01-29T12:40:17;101852.19;;;5.21;65.26
38054;BME280;23859;50.672;7.164;2023-01-29T12:42:51;101851.84;;;4.91;66.47
38054;BME280;23859;50.672;7.164;2023-01-29T12:45:21;101841.69;;;4.82;66.99
38054;BME280;23859;50.672;7.164;2023-01-29T12:47:52;101833.44;;;4.90;68.88
38054;BME280;23859;50.672;7.164;2023-01-29T12:50:32;101827.50;;;5.05;66.40
38054;BME280;23859;50.672;7.164;2023-01-29T12:53:26;101832.75;;;5.23;65.69
38054;BME280;23859;50.672;7.164;2023-01-29T12:55:58;101811.13;;;5.69;64.78
38054;BME280;23859;50.672;7.164;2023-01-29T12:58:45;101799.56;;;5.54;65.42
38054;BME280;23859;50.672;7.164;2023-01-29T13:01:26;101800.94;;;5.44;65.18
38054;BME280;23859;50.672;7.164;2023-01-29T13:04:13;101788.91;;;5.04;66.47
38054;BME280;23859;50.672;7.164;2023-01-29T13:06:46;101787.38;;;4.81;67.71
38054;BME280;23859;50.672;7.164;2023-01-29T13:09:21;101773.03;;;5.05;66.92
38054;BME280;23859;50.672;7.164;2023-01-29T13:11:57;101774.59;;;5.44;65.32
38054;BME280;23859;50.672;7.164;2023-01-29T13:14:24;101772.84;;;6.29;61.76
38054;BME280;23859;50.672;7.164;2023-01-29T13:17:01;101766.63;;;6.78;59.90
38054;BME280;23859;50.672;7.164;2023-01-29T13:19:37;101754.44;;;7.06;58.41
38054;BME280;23859;50.672;7.164;2023-01-29T13:22:24;101760.16;;;7.59;56.87
38054;BME280;23859;50.672;7.164;2023-01-29T13:24:51;101753.38;;;8.55;53.59
38054;BME280;23859;50.672;7.164;2023-01-29T13:27:21;101745.53;;;9.34;50.84
38054;BME280;23859;50.672;7.164;2023-01-29T13:29:49;101748.66;;;9.79;49.43
38054;BME280;23859;50.672;7.164;2023-01-29T13:32:20;101744.06;;;8.90;50.79
38054;BME280;23859;50.672;7.164;2023-01-29T13:34:48;101742.25;;;8.07;53.29
38054;BME280;23859;50.672;7.164;2023-01-29T13:37:32;101744.63;;;7.24;56.36
38054;BME280;23859;50.672;7.164;2023-01-29T13:40:00;101748.13;;;5.98;61.42
38054;BME280;23859;50.672;7.164;2023-01-29T13:42:46;101748.22;;;5.44;63.97
38054;BME280;23859;50.672;7.164;2023-01-29T13:47:51;101742.75;;;4.60;67.61
38054;BME280;23859;50.672;7.164;2023-01-29T13:50:31;101739.56;;;4.72;67.73
38054;BME280;23859;50.672;7.164;2023-01-29T13:53:04;101734.69;;;4.63;67.88
38054;BME280;23859;50.672;7.164;2023-01-29T13:55:36;101724.16;;;4.26;70.82
38054;BME280;23859;50.672;7.164;2023-01-29T14:00:58;101718.78;;;4.29;69.55
38054;BME280;23859;50.672;7.164;2023-01-29T14:05:58;101710.59;;;4.35;70.48
38054;BME280;23859;50.672;7.164;2023-01-29T14:08:44;101707.34;;;4.10;71.64
38054;BME280;23859;50.672;7.164;2023-01-29T14:13:47;101698.44;;;4.14;71.99
38054;BME280;23859;50.672;7.164;2023-01-29T14:18:55;101680.94;;;4.50;70.70
38054;BME280;23859;50.672;7.164;2023-01-29T14:23:55;101679.63;;;5.46;66.22
38054;BME280;23859;50.672;7.164;2023-01-29T14:26:31;101673.75;;;5.07;67.02
38054;BME280;23859;50.672;7.164;2023-01-29T14:29:05;101675.81;;;4.47;69.78
38054;BME280;23859;50.672;7.164;2023-01-29T14:31:42;101679.22;;;4.12;71.44
38054;BME280;23859;50.672;7.164;2023-01-29T14:36:42;101674.78;;;3.94;72.33
38054;BME280;23859;50.672;7.164;2023-01-29T14:39:24;101673.81;;;4.15;71.47
38054;BME280;23859;50.672;7.164;2023-01-29T14:41:53;101682.78;;;4.11;71.56
38054;BME280;23859;50.672;7.164;2023-01-29T14:47:20;101698.69;;;4.08;72.52
38054;BME280;23859;50.672;7.164;2023-01-29T14:49:50;101706.84;;;4.02;72.45
38054;BME280;23859;50.672;7.164;2023-01-29T14:52:19;101705.16;;;4.01;73.09
38054;BME280;23859;50.672;7.164;2023-01-29T14:54:47;101698.13;;;4.20;72.21
38054;BME280;23859;50.672;7.164;2023-01-29T14:57:17;101701.44;;;4.05;71.94
38054;BME280;23859;50.672;7.164;2023-01-29T15:00:13;101702.78;;;3.95;72.75
38054;BME280;23859;50.672;7.164;2023-01-29T15:02:43;101697.78;;;3.90;73.13
38054;BME280;23859;50.672;7.164;2023-01-29T15:05:15;101702.06;;;3.92;72.85
38054;BME280;23859;50.672;7.164;2023-01-29T15:07:59;101703.13;;;3.88;73.29
38054;BME280;23859;50.672;7.164;2023-01-29T15:14:12;101711.34;;;3.81;73.75